Time;durP1;ratioP1;P1;durP2;ratioP2;P2;SDS_P1;SDS_P2;PMS_P1;PMS_P2;Temp;Humidity;BMP_temperature;BMP_pressure;BME280_temperature;BME280_humidity;BME280_pressure;Samples;Min_cycle;Max_cycle;Signal;HPM_P1;HPM_P2
2023/11/02 00:02:27;;;;;;;3.70;1.10;;;11.30;99.90;;;;;;5102835;28;20190;-46
2023/11/02 00:04:55;;;;;;;2.00;1.20;;;11.30;99.90;;;;;;5100085;28;20893;-48
2023/11/02 00:07:22;;;;;;;2.57;0.80;;;11.20;99.90;;;;;;5093428;28;20265;-48
2023/11/02 00:09:56;;;;;;;4.80;1.20;;;11.20;99.90;;;;;;5100911;27;20471;-47
2023/11/02 00:12:27;;;;;;;3.07;1.13;;;11.20;99.90;;;;;;5103428;28;20201;-47
2023/11/02 00:14:55;;;;;;;4.73;1.10;;;11.10;99.90;;;;;;5068570;27;20248;-47
2023/11/02 00:18:01;;;;;;;4.53;0.87;;;11.10;99.90;;;;;;5094799;28;20329;-47
2023/11/02 00:20:39;;;;;;;1.87;1.00;;;11.10;99.90;;;;;;5097035;28;20205;-48
2023/11/02 00:23:07;;;;;;;3.67;1.47;;;11.00;99.90;;;;;;5092136;28;20219;-43
2023/11/02 00:25:51;;;;;;;2.77;1.10;;;11.00;99.90;;;;;;5097350;28;20205;-48
2023/11/02 00:28:19;;;;;;;4.70;1.37;;;11.00;99.90;;;;;;5098401;28;20295;-52
2023/11/02 00:30:48;;;;;;;3.97;0.93;;;10.90;99.90;;;;;;5071943;28;20626;-46
2023/11/02 00:33:16;;;;;;;1.90;1.00;;;10.90;99.90;;;;;;5086199;28;20843;-48
2023/11/02 00:35:44;;;;;;;1.27;0.90;;;11.00;99.90;;;;;;5098106;28;20226;-47
2023/11/02 00:38:11;;;;;;;3.13;1.00;;;10.90;99.90;;;;;;5090559;28;20201;-50
2023/11/02 00:40:39;;;;;;;2.20;1.23;;;10.90;99.90;;;;;;5102581;28;20276;-51
2023/11/02 00:43:06;;;;;;;3.27;1.10;;;10.90;99.90;;;;;;5101444;28;20197;-47
2023/11/02 00:45:39;;;;;;;3.80;1.33;;;10.90;99.90;;;;;;5072488;27;20201;-46
2023/11/02 00:48:12;;;;;;;6.27;1.10;;;10.90;99.90;;;;;;5083640;28;20567;-49
2023/11/02 00:51:07;;;;;;;3.17;1.17;;;10.80;99.90;;;;;;5102310;28;20310;-46
2023/11/02 00:53:34;;;;;;;2.13;0.90;;;10.80;99.90;;;;;;5093841;28;20225;-46
2023/11/02 00:56:05;;;;;;;2.23;1.00;;;10.80;99.90;;;;;;5102290;28;20193;-49
2023/11/02 00:58:33;;;;;;;1.20;0.80;;;10.80;99.90;;;;;;5100929;28;20215;-47
2023/11/02 01:01:07;;;;;;;2.70;0.90;;;10.70;99.90;;;;;;5072307;28;20254;-46
2023/11/02 01:03:35;;;;;;;2.30;1.20;;;10.70;99.90;;;;;;5092934;28;20758;-47
2023/11/02 01:06:02;;;;;;;3.37;1.30;;;10.60;99.90;;;;;;5102096;28;20197;-48
2023/11/02 01:08:31;;;;;;;5.23;1.33;;;10.60;99.90;;;;;;5092246;28;20214;-50
2023/11/02 01:10:58;;;;;;;1.43;0.90;;;10.60;99.90;;;;;;5100949;28;20321;-47
2023/11/02 01:13:27;;;;;;;4.13;1.50;;;10.50;99.90;;;;;;5098829;28;20209;-48
2023/11/02 01:16:08;;;;;;;1.20;0.90;;;10.50;99.90;;;;;;5072209;28;20213;-48
2023/11/02 01:18:35;;;;;;;2.27;1.40;;;10.40;99.90;;;;;;5102747;28;20190;-50
2023/11/02 01:21:04;;;;;;;5.07;1.20;;;10.40;99.90;;;;;;5091625;28;20755;-49
2023/11/02 01:23:32;;;;;;;4.87;1.57;;;10.30;99.90;;;;;;5091477;28;21725;-52
2023/11/02 01:26:00;;;;;;;3.90;1.40;;;10.30;99.90;;;;;;5087887;28;20190;-46
2023/11/02 01:28:49;;;;;;;4.43;1.43;;;10.20;99.90;;;;;;5098777;28;20259;-46
2023/11/02 01:31:19;;;;;;;4.33;1.20;;;10.20;99.90;;;;;;5069118;27;21675;-48
2023/11/02 01:33:57;;;;;;;2.53;1.20;;;10.20;99.90;;;;;;5100666;28;20609;-49
2023/11/02 01:36:45;;;;;;;3.60;1.30;;;10.10;99.90;;;;;;5092471;28;20223;-47
2023/11/02 01:39:51;;;;;;;4.10;1.23;;;10.10;99.90;;;;;;5085241;28;20210;-48
2023/11/02 01:42:23;;;;;;;2.87;1.20;;;10.00;99.90;;;;;;5096537;28;20754;-45
2023/11/02 01:45:03;;;;;;;3.20;0.90;;;9.90;99.90;;;;;;5102506;28;20221;-47
2023/11/02 01:48:01;;;;;;;5.50;1.00;;;9.90;99.90;;;;;;5072566;27;20213;-49
2023/11/02 01:50:36;;;;;;;3.70;1.33;;;9.90;99.90;;;;;;5092339;27;20208;-46
2023/11/02 01:53:28;;;;;;;2.30;1.07;;;9.90;99.90;;;;;;5099638;28;20197;-43
2023/11/02 01:56:09;;;;;;;3.53;1.00;;;9.80;99.90;;;;;;5093223;28;20193;-46
2023/11/02 01:58:49;;;;;;;3.40;1.00;;;9.80;99.90;;;;;;5099398;28;20613;-47
2023/11/02 02:01:24;;;;;;;2.10;1.33;;;9.80;99.90;;;;;;5095159;28;20190;-46
2023/11/02 02:04:02;;;;;;;3.67;1.00;;;9.80;99.90;;;;;;5068269;27;20714;-47
2023/11/02 02:06:36;;;;;;;2.30;1.10;;;9.80;99.90;;;;;;5092852;27;20895;-47
2023/11/02 02:09:16;;;;;;;1.20;1.10;;;9.80;99.90;;;;;;5094901;28;20230;-43
2023/11/02 02:11:53;;;;;;;5.77;1.83;;;9.70;99.90;;;;;;5101217;28;20227;-48
2023/11/02 02:14:27;;;;;;;4.23;1.30;;;9.70;99.90;;;;;;5088221;28;20212;-46
2023/11/02 02:17:01;;;;;;;2.10;1.10;;;9.70;99.90;;;;;;5100747;28;20185;-47
2023/11/02 02:19:49;;;;;;;1.50;1.20;;;9.70;99.90;;;;;;5066697;28;20198;-50
2023/11/02 02:22:21;;;;;;;4.07;1.83;;;9.70;99.90;;;;;;5079573;28;20201;-48
2023/11/02 02:24:53;;;;;;;3.47;1.10;;;9.70;99.90;;;;;;5100996;28;20208;-47
2023/11/02 02:28:00;;;;;;;3.97;1.00;;;9.70;99.90;;;;;;5088533;28;20948;-47
2023/11/02 02:30:49;;;;;;;2.97;1.20;;;9.60;99.90;;;;;;5037879;28;20934;-51
2023/11/02 02:33:44;;;;;;;2.83;1.30;;;9.70;99.90;;;;;;5097966;28;20815;-46
2023/11/02 02:36:14;;;;;;;5.20;1.20;;;9.60;99.90;;;;;;5061852;28;20200;-46
2023/11/02 02:38:46;;;;;;;2.17;1.00;;;9.60;99.90;;;;;;5090115;28;20213;-51
2023/11/02 02:41:16;;;;;;;1.80;0.90;;;9.60;99.90;;;;;;5089742;28;20201;-47
2023/11/02 02:43:45;;;;;;;2.60;1.07;;;9.60;99.90;;;;;;5102865;28;20251;-48
2023/11/02 02:46:16;;;;;;;5.27;1.10;;;9.60;99.90;;;;;;5097088;28;20784;-49
2023/11/02 02:48:43;;;;;;;3.67;1.20;;;9.60;99.90;;;;;;5100105;28;20214;-46
2023/11/02 02:51:11;;;;;;;3.07;0.90;;;9.60;99.90;;;;;;5068592;28;20205;-47
2023/11/02 02:53:42;;;;;;;1.83;1.00;;;9.60;99.90;;;;;;5093930;28;20775;-46
2023/11/02 02:56:13;;;;;;;3.43;1.17;;;9.50;99.90;;;;;;5094039;28;20663;-45
2023/11/02 02:58:45;;;;;;;1.43;0.93;;;9.50;99.90;;;;;;5104656;28;20197;-47
2023/11/02 03:01:17;;;;;;;5.03;1.80;;;9.50;99.90;;;;;;5100819;28;20859;-46
2023/11/02 03:03:47;;;;;;;2.37;1.00;;;9.50;99.90;;;;;;5107308;27;20618;-47
2023/11/02 03:06:18;;;;;;;3.73;0.93;;;9.40;99.90;;;;;;5067907;28;20213;-47
2023/11/02 03:08:48;;;;;;;1.63;0.80;;;9.40;99.90;;;;;;5105938;27;20304;-47
2023/11/02 03:11:15;;;;;;;4.63;1.13;;;9.40;99.90;;;;;;5091600;28;20867;-47
2023/11/02 03:13:45;;;;;;;1.77;0.90;;;9.40;99.90;;;;;;5099356;27;20775;-48
2023/11/02 03:16:15;;;;;;;6.10;1.23;;;9.40;99.90;;;;;;5101772;28;20795;-47
2023/11/02 03:18:42;;;;;;;5.57;0.90;;;9.40;99.90;;;;;;5103995;28;20181;-48
2023/11/02 03:21:09;;;;;;;2.50;1.10;;;9.30;99.90;;;;;;5070955;27;20206;-46
2023/11/02 03:23:48;;;;;;;1.67;1.00;;;9.30;99.90;;;;;;5104013;28;20301;-51
2023/11/02 03:26:25;;;;;;;1.10;1.00;;;9.30;99.90;;;;;;5091476;28;20916;-48
2023/11/02 03:29:15;;;;;;;2.83;1.33;;;9.30;99.90;;;;;;5093311;28;20683;-44
2023/11/02 03:31:48;;;;;;;3.33;1.30;;;9.30;99.90;;;;;;5103563;28;20579;-48
2023/11/02 03:34:24;;;;;;;6.53;1.20;;;9.20;99.90;;;;;;5101373;27;20213;-44
2023/11/02 03:37:14;;;;;;;1.60;1.50;;;9.30;99.90;;;;;;5071146;28;20214;-47
2023/11/02 03:40:19;;;;;;;4.83;1.00;;;9.30;99.90;;;;;;5098529;28;20298;-47
2023/11/02 03:42:54;;;;;;;2.80;1.10;;;9.30;99.90;;;;;;5102366;28;20248;-49
2023/11/02 03:45:34;;;;;;;0.90;0.80;;;9.20;99.90;;;;;;5094442;28;20354;-47
2023/11/02 03:48:11;;;;;;;4.23;1.00;;;9.20;99.90;;;;;;5101313;28;20244;-47
2023/11/02 03:50:47;;;;;;;4.37;1.07;;;9.20;99.90;;;;;;5103293;28;20222;-44
2023/11/02 03:53:19;;;;;;;6.23;1.50;;;9.20;99.90;;;;;;5066911;27;20211;-46
2023/11/02 03:55:55;;;;;;;3.17;1.50;;;9.20;99.90;;;;;;5104521;28;20200;-49
2023/11/02 03:58:32;;;;;;;4.17;1.00;;;9.10;99.90;;;;;;5093078;28;20273;-46
2023/11/02 04:01:08;;;;;;;3.00;0.97;;;9.10;99.90;;;;;;5096451;27;20279;-49
2023/11/02 04:03:39;;;;;;;2.07;1.00;;;9.10;99.90;;;;;;5105940;27;20246;-50
2023/11/02 04:06:11;;;;;;;3.83;1.07;;;9.10;99.90;;;;;;5100248;28;20201;-45
2023/11/02 04:08:43;;;;;;;3.17;0.83;;;9.10;99.90;;;;;;5070727;28;20691;-46
2023/11/02 04:11:19;;;;;;;3.83;1.10;;;9.00;99.90;;;;;;5090182;28;20270;-48
2023/11/02 04:13:59;;;;;;;3.40;1.00;;;9.00;99.90;;;;;;5104368;28;20224;-50
2023/11/02 04:16:28;;;;;;;5.10;1.40;;;9.00;99.90;;;;;;5098120;28;20197;-45
2023/11/02 04:18:54;;;;;;;4.00;0.90;;;9.00;99.90;;;;;;5103304;28;20198;-45
2023/11/02 04:21:22;;;;;;;4.07;1.10;;;8.90;99.90;;;;;;5101482;28;20221;-46
2023/11/02 04:23:48;;;;;;;4.03;1.10;;;8.90;99.90;;;;;;5072731;28;20221;-49
2023/11/02 04:26:15;;;;;;;2.97;0.80;;;8.90;99.90;;;;;;5090195;28;21328;-47
2023/11/02 04:28:42;;;;;;;3.83;0.70;;;8.90;99.90;;;;;;5103287;28;20205;-46
2023/11/02 04:31:10;;;;;;;4.80;0.93;;;8.90;99.90;;;;;;5101401;27;20197;-48
2023/11/02 04:33:37;;;;;;;1.60;0.70;;;8.90;99.90;;;;;;5105570;27;20687;-48
2023/11/02 04:36:06;;;;;;;2.80;0.90;;;8.90;99.90;;;;;;5103296;27;20716;-43
2023/11/02 04:38:33;;;;;;;2.37;0.83;;;9.00;99.90;;;;;;5104363;27;20272;-46
2023/11/02 04:41:00;;;;;;;1.70;1.37;;;9.00;99.90;;;;;;5067085;27;20205;-46
2023/11/02 04:43:26;;;;;;;1.47;1.07;;;9.00;99.90;;;;;;5097167;28;20307;-47
2023/11/02 04:45:53;;;;;;;4.93;0.90;;;9.00;99.90;;;;;;5082462;28;20190;-44
2023/11/02 04:48:21;;;;;;;2.73;1.00;;;9.00;99.90;;;;;;5099680;28;20221;-49
2023/11/02 04:50:53;;;;;;;0.83;0.80;;;9.00;99.90;;;;;;5102760;28;20271;-50
2023/11/02 04:53:21;;;;;;;4.53;0.97;;;9.00;99.90;;;;;;5100381;28;20832;-49
2023/11/02 04:55:48;;;;;;;1.40;1.10;;;9.00;99.90;;;;;;5071428;28;20258;-47
2023/11/02 04:58:15;;;;;;;2.30;0.93;;;9.00;99.90;;;;;;5088975;28;20381;-45
2023/11/02 05:00:42;;;;;;;3.60;0.90;;;9.10;99.90;;;;;;5097658;27;20239;-45
2023/11/02 05:03:09;;;;;;;2.67;0.90;;;9.10;99.90;;;;;;5106082;27;20189;-45
2023/11/02 05:05:37;;;;;;;1.87;0.87;;;9.10;99.90;;;;;;5101361;27;20251;-48
2023/11/02 05:08:08;;;;;;;1.30;0.70;;;9.10;99.90;;;;;;5097839;28;20274;-44
2023/11/02 05:10:35;;;;;;;1.10;0.80;;;9.10;99.90;;;;;;5065671;27;20206;-48
2023/11/02 05:13:02;;;;;;;3.77;1.10;;;9.10;99.90;;;;;;5094411;28;20289;-44
2023/11/02 05:15:29;;;;;;;2.97;0.80;;;9.10;99.90;;;;;;5099185;28;20190;-48
2023/11/02 05:17:56;;;;;;;3.07;0.70;;;9.10;99.90;;;;;;5092152;28;20201;-45
2023/11/02 05:20:23;;;;;;;0.90;0.77;;;9.10;99.90;;;;;;5098990;28;20326;-47
2023/11/02 05:22:51;;;;;;;2.60;0.60;;;9.10;99.90;;;;;;5102305;28;20204;-48
2023/11/02 05:25:19;;;;;;;4.23;0.90;;;9.10;99.90;;;;;;5066303;28;25803;-48
2023/11/02 05:27:46;;;;;;;2.70;1.00;;;9.10;99.90;;;;;;5097830;28;20208;-49
2023/11/02 05:30:12;;;;;;;4.30;1.00;;;9.10;99.90;;;;;;5077369;28;21032;-47
2023/11/02 05:32:39;;;;;;;2.03;1.00;;;9.10;99.90;;;;;;5088475;28;20618;-48
2023/11/02 05:35:09;;;;;;;1.27;0.70;;;9.00;99.90;;;;;;5092105;28;20217;-49
2023/11/02 05:37:36;;;;;;;1.70;0.77;;;9.00;99.90;;;;;;5092989;28;20224;-47
2023/11/02 05:40:05;;;;;;;1.13;1.03;;;9.00;99.90;;;;;;5094382;28;21906;-46
2023/11/02 05:42:32;;;;;;;2.00;0.90;;;9.00;99.90;;;;;;5069515;27;20220;-49
2023/11/02 05:45:01;;;;;;;3.27;0.87;;;9.00;99.90;;;;;;5093810;28;20224;-46
2023/11/02 05:47:28;;;;;;;3.33;1.10;;;8.90;99.90;;;;;;5089741;27;20237;-45
2023/11/02 05:49:55;;;;;;;1.03;0.80;;;8.90;99.90;;;;;;5098937;28;20224;-47
2023/11/02 05:52:22;;;;;;;1.90;0.90;;;8.80;99.90;;;;;;5084781;28;20217;-48
2023/11/02 05:54:49;;;;;;;1.03;0.70;;;8.80;99.90;;;;;;5099386;28;20217;-46
2023/11/02 05:57:17;;;;;;;2.07;1.17;;;8.80;99.90;;;;;;5067304;28;20205;-49
2023/11/02 05:59:44;;;;;;;1.13;0.90;;;8.80;99.90;;;;;;5098690;28;20243;-51
2023/11/02 06:02:10;;;;;;;2.43;0.90;;;8.80;99.90;;;;;;5075012;28;20847;-51
2023/11/02 06:04:38;;;;;;;2.30;1.10;;;8.80;99.90;;;;;;5099976;28;20209;-45
2023/11/02 06:07:04;;;;;;;2.27;0.97;;;8.90;99.90;;;;;;5081714;28;20201;-48
2023/11/02 06:09:31;;;;;;;2.40;1.00;;;8.90;99.90;;;;;;5096261;28;20561;-47
2023/11/02 06:11:58;;;;;;;1.67;0.73;;;8.90;99.90;;;;;;5100245;28;20193;-49
2023/11/02 06:14:26;;;;;;;4.17;0.90;;;8.90;99.90;;;;;;5074992;27;20297;-46
2023/11/02 06:16:53;;;;;;;2.27;1.17;;;8.90;99.90;;;;;;5090853;28;20566;-47
2023/11/02 06:19:20;;;;;;;1.00;0.87;;;9.00;99.90;;;;;;5095464;28;20196;-46
2023/11/02 06:21:48;;;;;;;4.37;0.70;;;9.00;99.90;;;;;;5092908;28;20599;-49
2023/11/02 06:24:15;;;;;;;1.73;0.87;;;9.00;99.90;;;;;;5089300;28;20282;-46
2023/11/02 06:26:42;;;;;;;0.80;0.70;;;9.00;99.90;;;;;;5100589;28;20209;-46
2023/11/02 06:29:11;;;;;;;2.00;0.93;;;9.10;99.90;;;;;;5066528;27;20630;-46
2023/11/02 06:31:39;;;;;;;3.83;0.90;;;9.10;99.90;;;;;;5097074;27;20189;-45
2023/11/02 06:34:06;;;;;;;2.10;0.87;;;9.10;99.90;;;;;;5096401;28;20755;-44
2023/11/02 06:36:32;;;;;;;3.10;0.90;;;9.10;99.90;;;;;;5113015;27;20215;-45
2023/11/02 06:38:59;;;;;;;3.07;1.10;;;9.10;99.90;;;;;;5089872;28;20197;-46
2023/11/02 06:41:26;;;;;;;2.10;0.77;;;9.20;99.90;;;;;;5083781;27;20205;-49
2023/11/02 06:43:53;;;;;;;3.23;0.83;;;9.20;99.90;;;;;;5074322;27;20217;-51
2023/11/02 06:46:20;;;;;;;4.63;0.80;;;9.20;99.90;;;;;;5102710;27;20201;-45
2023/11/02 06:48:48;;;;;;;1.33;0.63;;;9.30;99.90;;;;;;5101206;27;20655;-54
2023/11/02 06:51:15;;;;;;;2.43;0.90;;;9.40;99.90;;;;;;5096784;28;20213;-51
2023/11/02 06:53:42;;;;;;;2.33;0.83;;;9.40;99.90;;;;;;5090717;28;20545;-50
2023/11/02 06:56:09;;;;;;;2.67;1.40;;;9.40;99.90;;;;;;5091339;28;20563;-44
2023/11/02 06:58:36;;;;;;;3.53;1.00;;;9.40;99.90;;;;;;5080712;28;20233;-47
2023/11/02 07:01:04;;;;;;;1.67;0.90;;;9.50;99.90;;;;;;5075060;27;20831;-44
2023/11/02 07:03:31;;;;;;;1.80;0.67;;;9.50;99.90;;;;;;5086160;28;20217;-47
2023/11/02 07:05:59;;;;;;;2.60;0.83;;;9.50;99.90;;;;;;5094856;28;20301;-44
2023/11/02 07:08:27;;;;;;;2.57;1.00;;;9.50;99.90;;;;;;5100285;28;20290;-50
2023/11/02 07:10:54;;;;;;;3.83;0.80;;;9.60;99.90;;;;;;5092617;28;20221;-43
2023/11/02 07:13:21;;;;;;;1.43;0.70;;;9.60;99.90;;;;;;5100102;28;20820;-45
2023/11/02 07:15:49;;;;;;;2.93;0.60;;;9.70;99.90;;;;;;5073015;28;20216;-47
2023/11/02 07:18:16;;;;;;;2.27;0.97;;;9.70;99.90;;;;;;5081200;28;20209;-46
2023/11/02 07:20:43;;;;;;;2.57;0.93;;;9.70;99.90;;;;;;5105830;28;20193;-46
2023/11/02 07:23:11;;;;;;;1.80;0.70;;;9.70;99.90;;;;;;5093425;28;20766;-47
2023/11/02 07:25:38;;;;;;;1.47;0.93;;;9.80;99.90;;;;;;5092338;28;20231;-46
2023/11/02 07:28:05;;;;;;;1.00;0.77;;;9.80;99.90;;;;;;5101722;28;20232;-44
2023/11/02 07:30:32;;;;;;;1.73;0.80;;;9.80;99.90;;;;;;5061382;28;20205;-44
2023/11/02 07:32:59;;;;;;;4.43;0.97;;;9.80;99.90;;;;;;5091716;28;21567;-46
2023/11/02 07:35:26;;;;;;;1.40;0.90;;;9.80;99.90;;;;;;5094922;28;20280;-44
2023/11/02 07:37:53;;;;;;;4.13;0.90;;;9.80;99.90;;;;;;5094092;28;20277;-44
2023/11/02 07:40:21;;;;;;;3.67;0.83;;;9.90;99.90;;;;;;5096720;27;20197;-46
2023/11/02 07:42:48;;;;;;;2.00;1.13;;;9.90;99.90;;;;;;5094728;28;20900;-46
2023/11/02 07:45:15;;;;;;;0.57;0.57;;;9.90;99.90;;;;;;5057257;28;20226;-51
2023/11/02 07:47:42;;;;;;;2.20;0.60;;;9.90;99.90;;;;;;5097082;28;20201;-46
2023/11/02 07:50:09;;;;;;;1.80;0.73;;;9.90;99.90;;;;;;5073121;28;20314;-44
2023/11/02 07:52:37;;;;;;;1.10;0.63;;;10.00;99.90;;;;;;5095602;28;20301;-48
2023/11/02 07:55:05;;;;;;;2.20;0.77;;;10.00;99.90;;;;;;5088679;28;20221;-46
2023/11/02 07:57:34;;;;;;;2.33;1.00;;;10.00;99.90;;;;;;5079445;27;20197;-44
2023/11/02 08:00:02;;;;;;;2.57;0.63;;;10.00;99.90;;;;;;5101966;28;20190;-43
2023/11/02 08:02:38;;;;;;;2.03;0.60;;;10.00;99.90;;;;;;5052620;28;20210;-45
2023/11/02 08:05:06;;;;;;;1.33;0.80;;;10.00;99.90;;;;;;5082143;28;20319;-48
2023/11/02 08:07:33;;;;;;;2.33;0.63;;;10.10;99.90;;;;;;5089338;27;20196;-44
2023/11/02 08:10:01;;;;;;;2.27;0.50;;;10.10;99.90;;;;;;5101992;28;20304;-45
2023/11/02 08:12:28;;;;;;;2.83;0.70;;;10.10;99.90;;;;;;5089915;28;20960;-45
2023/11/02 08:14:57;;;;;;;2.57;0.70;;;10.10;99.90;;;;;;5111414;27;20612;-48
2023/11/02 08:17:27;;;;;;;2.63;0.70;;;10.20;99.90;;;;;;5077007;27;20577;-46
2023/11/02 08:19:54;;;;;;;1.67;0.70;;;10.20;99.90;;;;;;5088836;27;20884;-45
2023/11/02 08:22:22;;;;;;;2.90;0.63;;;10.20;99.90;;;;;;5092851;28;20278;-48
2023/11/02 08:24:49;;;;;;;1.30;0.80;;;10.20;99.90;;;;;;5096325;28;20212;-45
2023/11/02 08:27:16;;;;;;;5.30;0.67;;;10.20;99.90;;;;;;5097703;28;20197;-47
2023/11/02 08:29:43;;;;;;;2.57;0.73;;;10.20;99.90;;;;;;5094025;27;20220;-47
2023/11/02 08:32:11;;;;;;;2.40;0.87;;;10.20;99.90;;;;;;5073710;28;20611;-46
2023/11/02 08:34:41;;;;;;;2.03;0.90;;;10.30;99.90;;;;;;5084411;27;20303;-45
2023/11/02 08:37:09;;;;;;;0.90;0.53;;;10.30;99.90;;;;;;5099392;27;20201;-44
2023/11/02 08:39:36;;;;;;;2.00;0.70;;;10.30;99.90;;;;;;5090199;28;20192;-45
2023/11/02 08:42:04;;;;;;;2.53;0.70;;;10.40;99.90;;;;;;5099515;28;20190;-46
2023/11/02 08:44:31;;;;;;;0.60;0.50;;;10.30;99.90;;;;;;5092457;27;20220;-49
2023/11/02 08:46:58;;;;;;;2.80;0.70;;;10.40;99.90;;;;;;5069877;28;20205;-47
2023/11/02 08:49:26;;;;;;;1.40;0.53;;;10.40;99.90;;;;;;5091987;28;20240;-47
2023/11/02 08:51:53;;;;;;;2.70;0.83;;;10.40;99.90;;;;;;5080883;28;20205;-44
2023/11/02 08:54:20;;;;;;;2.07;0.57;;;10.50;99.90;;;;;;5091020;28;20274;-47
2023/11/02 08:56:47;;;;;;;1.53;0.40;;;10.50;99.90;;;;;;5101412;28;20268;-46
2023/11/02 08:59:14;;;;;;;2.40;0.50;;;10.50;99.90;;;;;;5096814;28;20269;-47
2023/11/02 09:01:42;;;;;;;2.00;0.57;;;10.50;99.90;;;;;;5092635;28;20870;-46
2023/11/02 09:04:09;;;;;;;3.17;0.73;;;10.60;99.90;;;;;;5064586;28;20224;-46
2023/11/02 09:06:37;;;;;;;1.73;0.53;;;10.60;99.90;;;;;;5085576;28;20200;-45
2023/11/02 09:09:04;;;;;;;1.43;0.60;;;10.70;99.90;;;;;;5091871;28;20220;-48
2023/11/02 09:11:31;;;;;;;3.03;0.70;;;10.70;99.90;;;;;;5086337;28;20225;-46
2023/11/02 09:13:58;;;;;;;0.53;0.40;;;10.80;99.90;;;;;;5092050;28;20675;-46
2023/11/02 09:16:26;;;;;;;1.47;0.70;;;10.80;99.90;;;;;;5097617;28;20224;-46
2023/11/02 09:18:54;;;;;;;0.50;0.50;;;10.80;99.90;;;;;;5069375;27;20211;-44
2023/11/02 09:21:20;;;;;;;1.70;0.67;;;10.80;99.90;;;;;;5088526;28;20193;-43
2023/11/02 09:23:49;;;;;;;1.07;0.60;;;10.90;99.90;;;;;;5082593;28;20725;-47
2023/11/02 09:26:16;;;;;;;0.97;0.60;;;10.90;99.90;;;;;;5093079;27;20223;-44
2023/11/02 09:28:43;;;;;;;2.53;0.90;;;10.90;99.90;;;;;;5090451;27;20298;-44
2023/11/02 09:31:12;;;;;;;2.23;0.60;;;11.00;99.90;;;;;;5099924;28;20270;-45
2023/11/02 09:33:39;;;;;;;2.30;0.60;;;11.00;99.90;;;;;;5065978;27;20221;-46
2023/11/02 09:36:08;;;;;;;0.90;0.90;;;11.00;99.90;;;;;;5090460;28;20189;-48
2023/11/02 09:38:34;;;;;;;1.13;0.50;;;11.00;99.90;;;;;;5089277;28;20202;-46
2023/11/02 09:41:03;;;;;;;1.30;0.67;;;11.00;99.90;;;;;;5093016;28;20645;-47
2023/11/02 09:43:30;;;;;;;4.13;0.60;;;11.10;99.90;;;;;;5089593;28;20225;-43
2023/11/02 09:45:57;;;;;;;2.10;0.50;;;11.10;99.90;;;;;;5094221;28;20558;-46
2023/11/02 09:48:25;;;;;;;0.57;0.43;;;11.10;99.90;;;;;;5077984;28;20257;-46
2023/11/02 09:50:52;;;;;;;3.33;0.57;;;11.20;99.90;;;;;;5075961;27;20225;-46
2023/11/02 09:53:19;;;;;;;3.83;0.70;;;11.20;99.90;;;;;;5097578;27;20205;-43
2023/11/02 09:55:47;;;;;;;3.77;0.63;;;11.30;99.90;;;;;;5086886;27;20186;-45
2023/11/02 09:58:17;;;;;;;4.23;0.60;;;11.30;99.90;;;;;;5090883;28;20221;-44
2023/11/02 10:00:45;;;;;;;2.47;0.60;;;11.30;99.90;;;;;;5084019;28;20185;-45
2023/11/02 10:03:12;;;;;;;1.60;0.60;;;11.30;99.90;;;;;;5096524;28;20210;-44
2023/11/02 10:05:39;;;;;;;2.17;0.50;;;11.40;99.90;;;;;;5076819;28;20309;-45
2023/11/02 10:08:06;;;;;;;2.33;0.70;;;11.40;99.90;;;;;;5086633;28;20741;-45
2023/11/02 10:10:34;;;;;;;2.33;0.50;;;11.40;99.90;;;;;;5077806;28;20226;-49
2023/11/02 10:13:01;;;;;;;2.47;0.50;;;11.40;99.90;;;;;;5089837;28;20593;-43
2023/11/02 10:15:30;;;;;;;0.93;0.47;;;11.50;99.90;;;;;;5101771;27;20571;-44
2023/11/02 10:17:57;;;;;;;2.27;0.60;;;11.50;99.90;;;;;;5089770;28;20257;-47
2023/11/02 10:20:25;;;;;;;1.67;0.40;;;11.50;99.90;;;;;;5067660;28;20711;-43
2023/11/02 10:22:59;;;;;;;1.30;0.70;;;11.60;99.90;;;;;;5091503;28;20193;-44
2023/11/02 10:25:29;;;;;;;2.00;0.80;;;11.60;99.90;;;;;;5084162;28;20216;-44
2023/11/02 10:27:56;;;;;;;0.57;0.50;;;11.70;99.90;;;;;;5100348;28;20659;-45
2023/11/02 10:30:24;;;;;;;1.13;0.60;;;11.70;99.90;;;;;;5091848;28;20953;-45
2023/11/02 10:32:53;;;;;;;1.80;0.50;;;11.70;99.90;;;;;;5092728;28;20201;-46
2023/11/02 10:35:20;;;;;;;1.97;0.80;;;11.80;99.90;;;;;;5072953;28;20217;-45
2023/11/02 10:37:50;;;;;;;1.87;0.70;;;11.80;99.90;;;;;;5090236;28;20205;-49
2023/11/02 10:40:18;;;;;;;1.83;0.50;;;11.80;99.90;;;;;;5090232;28;20204;-44
2023/11/02 10:42:45;;;;;;;0.90;0.30;;;11.80;99.90;;;;;;5092972;28;20193;-45
2023/11/02 10:45:14;;;;;;;1.10;0.67;;;11.80;99.90;;;;;;5090247;28;20213;-45
2023/11/02 10:47:42;;;;;;;3.43;0.47;;;11.80;99.90;;;;;;5094987;28;20648;-44
2023/11/02 10:50:13;;;;;;;0.67;0.50;;;11.90;99.90;;;;;;5068190;28;22119;-44
2023/11/02 10:52:46;;;;;;;0.90;0.53;;;11.90;99.90;;;;;;5100304;28;20205;-44
2023/11/02 10:55:23;;;;;;;4.23;0.70;;;12.00;99.90;;;;;;5086055;28;21040;-46
2023/11/02 10:57:50;;;;;;;4.10;0.50;;;12.00;99.90;;;;;;5091384;28;20210;-44
2023/11/02 11:00:18;;;;;;;2.47;0.60;;;12.00;99.90;;;;;;5090791;28;20193;-47
2023/11/02 11:02:47;;;;;;;0.80;0.50;;;12.00;99.90;;;;;;5095764;28;20197;-45
2023/11/02 11:05:17;;;;;;;1.00;0.50;;;12.00;99.90;;;;;;5090055;28;20219;-44
2023/11/02 11:07:45;;;;;;;1.43;0.50;;;12.00;99.90;;;;;;5062416;28;20684;-44
2023/11/02 11:10:13;;;;;;;0.40;0.40;;;12.00;99.90;;;;;;5092408;28;20217;-45
2023/11/02 11:12:41;;;;;;;0.40;0.40;;;12.00;99.90;;;;;;5083216;28;20200;-47
2023/11/02 11:15:10;;;;;;;0.97;0.50;;;12.00;99.90;;;;;;5104973;27;20698;-48
2023/11/02 11:17:41;;;;;;;1.20;0.60;;;12.00;99.90;;;;;;5086796;28;20618;-50
2023/11/02 11:20:10;;;;;;;1.80;0.53;;;12.10;99.90;;;;;;5096741;28;20201;-47
2023/11/02 11:22:40;;;;;;;0.70;0.60;;;12.10;99.90;;;;;;5074414;28;20212;-45
2023/11/02 11:25:07;;;;;;;1.20;0.40;;;12.10;99.90;;;;;;5084682;28;20217;-44
2023/11/02 11:27:36;;;;;;;1.47;0.43;;;12.10;99.90;;;;;;5096123;27;20212;-49
2023/11/02 11:30:04;;;;;;;1.27;0.50;;;12.10;99.90;;;;;;5100080;28;20294;-46
2023/11/02 11:32:33;;;;;;;0.90;0.40;;;12.20;99.90;;;;;;5093336;28;20644;-49
2023/11/02 11:35:14;;;;;;;1.37;0.60;;;12.10;99.90;;;;;;5090332;28;20297;-45
2023/11/02 11:37:45;;;;;;;0.90;0.40;;;12.20;99.90;;;;;;5064644;27;20255;-50
2023/11/02 11:40:34;;;;;;;0.73;0.60;;;12.20;99.90;;;;;;5093949;27;20201;-46
2023/11/02 11:43:05;;;;;;;1.03;0.50;;;12.20;99.90;;;;;;5093463;28;20218;-44
2023/11/02 11:45:32;;;;;;;2.73;0.53;;;12.20;99.90;;;;;;5101287;28;20194;-45
2023/11/02 11:47:59;;;;;;;5.63;1.00;;;12.20;99.90;;;;;;5098836;27;20983;-42
2023/11/02 11:50:35;;;;;;;1.50;0.90;;;12.20;99.90;;;;;;5095978;27;20723;-45
2023/11/02 11:53:12;;;;;;;0.97;0.70;;;12.20;99.90;;;;;;5069942;28;20942;-47
2023/11/02 11:55:39;;;;;;;0.60;0.60;;;12.20;99.90;;;;;;5098474;28;20199;-44
2023/11/02 11:58:08;;;;;;;1.43;0.40;;;12.20;99.90;;;;;;5103303;27;20209;-44
2023/11/02 12:00:36;;;;;;;2.00;0.50;;;12.30;99.90;;;;;;5087779;28;20626;-49
2023/11/02 12:03:06;;;;;;;1.47;0.50;;;12.30;99.90;;;;;;5104945;27;20204;-44
2023/11/02 12:05:55;;;;;;;1.13;0.50;;;12.30;99.90;;;;;;5094198;28;20235;-46
2023/11/02 12:08:23;;;;;;;1.63;0.57;;;12.40;99.90;;;;;;5076233;27;20682;-44
2023/11/02 12:10:53;;;;;;;3.40;0.60;;;12.50;99.90;;;;;;5095162;27;20278;-47
2023/11/02 12:13:20;;;;;;;1.33;0.47;;;12.60;99.90;;;;;;5094210;27;20207;-45
2023/11/02 12:15:58;;;;;;;1.57;0.57;;;12.70;99.90;;;;;;5092092;27;20208;-46
2023/11/02 12:18:28;;;;;;;0.80;0.37;;;12.80;99.90;;;;;;5089963;28;20203;-47
2023/11/02 12:20:57;;;;;;;2.00;0.40;;;12.90;99.90;;;;;;5095387;28;20189;-46
2023/11/02 12:23:39;;;;;;;1.47;0.57;;;12.90;99.90;;;;;;5080015;27;20231;-47
2023/11/02 12:26:08;;;;;;;0.70;0.40;;;12.90;99.90;;;;;;5095684;28;20286;-46
2023/11/02 12:28:42;;;;;;;2.10;0.60;;;12.90;99.90;;;;;;5088130;27;20201;-43
2023/11/02 12:31:10;;;;;;;0.73;0.30;;;12.90;99.90;;;;;;5094883;28;20212;-46
2023/11/02 12:33:37;;;;;;;2.60;0.50;;;13.00;99.90;;;;;;5093040;28;20372;-45
2023/11/02 12:36:05;;;;;;;0.80;0.50;;;13.00;99.90;;;;;;5101987;27;20277;-48
2023/11/02 12:38:44;;;;;;;1.30;0.47;;;13.00;99.90;;;;;;5064177;28;20206;-45
2023/11/02 12:41:12;;;;;;;0.90;0.63;;;13.00;99.90;;;;;;5097243;28;20185;-45
2023/11/02 12:43:40;;;;;;;5.30;0.60;;;13.00;99.90;;;;;;5097431;27;20227;-44
2023/11/02 12:46:09;;;;;;;0.77;0.40;;;13.00;99.90;;;;;;5093267;27;20671;-48
2023/11/02 12:48:38;;;;;;;1.30;0.57;;;13.00;99.90;;;;;;5090188;28;20194;-45
2023/11/02 12:51:19;;;;;;;1.57;0.40;;;12.90;99.90;;;;;;5094765;28;20687;-45
2023/11/02 12:53:49;;;;;;;3.53;0.43;;;12.90;99.90;;;;;;5067048;27;20229;-44
2023/11/02 12:56:23;;;;;;;0.80;0.53;;;12.90;99.90;;;;;;5102102;28;20217;-44
2023/11/02 12:59:00;;;;;;;0.83;0.30;;;12.90;99.90;;;;;;5085353;28;21748;-43
2023/11/02 13:01:43;;;;;;;0.90;0.60;;;12.90;99.90;;;;;;5085380;28;20225;-48
2023/11/02 13:04:10;;;;;;;1.23;0.50;;;13.00;99.90;;;;;;5087768;28;20735;-43
2023/11/02 13:06:36;;;;;;;2.07;0.40;;;13.00;99.90;;;;;;5098876;28;20208;-47
2023/11/02 13:09:08;;;;;;;1.23;0.77;;;13.00;99.90;;;;;;5068534;27;20201;-45